Time;durP1;ratioP1;P1;durP2;ratioP2;P2;SDS_P1;SDS_P2;PMS_P1;PMS_P2;Temp;Humidity;BMP_temperature;BMP_pressure;BME280_temperature;BME280_humidity;BME280_pressure;Samples;Min_cycle;Max_cycle;Signal;HPM_P1;HPM_P2
2022/06/07 00:01:57;;;;;;;3.97;2.60;;;14.40;4.10;;;;;;4993961;28;20207;-67
2022/06/07 00:04:23;;;;;;;5.43;2.63;;;14.50;6.40;;;;;;4993676;28;20229;-68
2022/06/07 00:06:48;;;;;;;3.07;2.60;;;14.40;6.50;;;;;;4993879;28;20250;-68
2022/06/07 00:09:14;;;;;;;2.80;2.60;;;14.40;9.40;;;;;;4993810;28;20698;-68
2022/06/07 00:11:39;;;;;;;4.07;2.77;;;14.40;8.90;;;;;;4993838;28;20223;-68
2022/06/07 00:14:05;;;;;;;7.73;3.63;;;14.40;10.10;;;;;;4993996;28;20205;-69
2022/06/07 00:16:31;;;;;;;4.00;2.70;;;14.30;13.10;;;;;;4994041;28;20573;-68
2022/06/07 00:18:56;;;;;;;3.10;2.70;;;14.30;15.30;;;;;;4993522;28;20167;-68
2022/06/07 00:21:22;;;;;;;6.00;2.80;;;14.20;15.10;;;;;;4993647;28;20182;-68
2022/06/07 00:23:47;;;;;;;5.90;2.77;;;14.30;16.30;;;;;;4993484;28;20223;-68
2022/06/07 00:26:13;;;;;;;4.40;2.77;;;14.20;16.60;;;;;;4993609;28;20175;-68
2022/06/07 00:28:39;;;;;;;6.60;3.17;;;14.20;19.20;;;;;;4992584;28;20203;-67
2022/06/07 00:31:04;;;;;;;5.50;2.83;;;14.10;21.80;;;;;;4993807;28;20569;-68
2022/06/07 00:33:31;;;;;;;3.43;2.97;;;14.10;23.90;;;;;;4993423;28;20620;-67
2022/06/07 00:35:56;;;;;;;3.93;2.67;;;14.10;24.60;;;;;;4993685;28;20175;-67
2022/06/07 00:38:22;;;;;;;5.40;2.77;;;14.00;26.00;;;;;;4993711;28;20174;-68
2022/06/07 00:40:48;;;;;;;6.37;3.13;;;14.00;24.40;;;;;;4993505;28;20183;-67
2022/06/07 00:43:13;;;;;;;4.63;3.20;;;14.00;27.20;;;;;;4993452;28;20230;-69
2022/06/07 00:45:39;;;;;;;3.50;2.73;;;14.00;28.10;;;;;;4993589;28;20190;-68
2022/06/07 00:48:06;;;;;;;4.50;2.80;;;13.90;29.50;;;;;;4993397;28;20207;-67
2022/06/07 00:50:49;;;;;;;5.80;3.10;;;13.90;30.80;;;;;;4992378;28;20238;-68
2022/06/07 00:53:28;;;;;;;3.03;2.80;;;13.90;34.40;;;;;;4993499;28;20171;-68
2022/06/07 00:55:54;;;;;;;3.53;3.10;;;13.90;35.30;;;;;;4993573;28;20203;-69
2022/06/07 00:58:22;;;;;;;3.63;3.23;;;13.80;35.60;;;;;;4993532;28;20209;-68
2022/06/07 01:00:48;;;;;;;5.07;2.80;;;13.70;40.00;;;;;;4992267;28;20175;-68
2022/06/07 01:03:15;;;;;;;6.30;3.00;;;13.70;43.30;;;;;;4993904;28;20182;-68
2022/06/07 01:05:41;;;;;;;9.40;3.13;;;13.70;43.90;;;;;;4997180;28;20187;-67
2022/06/07 01:10:54;;;;;;;4.20;3.10;;;13.60;46.50;;;;;;4997188;28;20634;-68
2022/06/07 01:13:22;;;;;;;4.47;3.03;;;13.60;49.90;;;;;;4997017;28;20183;-68
2022/06/07 01:15:48;;;;;;;4.53;2.90;;;13.50;50.30;;;;;;4997160;28;20167;-67
2022/06/07 01:18:16;;;;;;;3.83;3.17;;;13.60;51.10;;;;;;4996437;28;20183;-68
2022/06/07 01:20:41;;;;;;;4.20;3.40;;;13.60;49.30;;;;;;4996966;28;20179;-68
2022/06/07 01:23:08;;;;;;;4.70;3.10;;;13.60;48.10;;;;;;4996419;28;20227;-67
2022/06/07 01:25:35;;;;;;;5.10;3.53;;;13.60;48.80;;;;;;4996736;28;20175;-69
2022/06/07 01:28:01;;;;;;;4.13;3.60;;;13.50;50.60;;;;;;4996770;28;20164;-66
2022/06/07 01:30:26;;;;;;;4.97;3.20;;;13.50;51.90;;;;;;4996635;28;20619;-67
2022/06/07 01:32:52;;;;;;;3.90;3.30;;;13.50;52.80;;;;;;4996218;28;20261;-68
2022/06/07 01:35:18;;;;;;;4.53;3.20;;;13.50;53.70;;;;;;4996704;28;20246;-68
2022/06/07 01:37:44;;;;;;;5.03;3.27;;;13.40;54.70;;;;;;4995394;28;20706;-69
2022/06/07 01:42:54;;;;;;;5.07;3.20;;;13.50;56.40;;;;;;4996645;28;20530;-67
2022/06/07 01:45:20;;;;;;;6.03;3.83;;;13.40;56.30;;;;;;4996331;28;20172;-68
2022/06/07 01:47:46;;;;;;;5.20;3.43;;;13.40;58.50;;;;;;4995932;28;20638;-67
2022/06/07 01:50:11;;;;;;;5.27;3.50;;;13.30;60.50;;;;;;4996474;28;20310;-68
2022/06/07 01:52:37;;;;;;;7.13;3.80;;;13.30;62.00;;;;;;4996121;28;20251;-67
2022/06/07 01:55:05;;;;;;;4.67;3.47;;;13.40;63.40;;;;;;4996124;28;20199;-68
2022/06/07 01:57:31;;;;;;;4.43;3.83;;;13.30;63.90;;;;;;4996116;28;20196;-69
2022/06/07 01:59:58;;;;;;;5.10;3.77;;;13.30;63.70;;;;;;4996113;28;20264;-66
2022/06/07 02:02:24;;;;;;;4.77;3.70;;;13.30;67.00;;;;;;4995717;28;20172;-67
2022/06/07 02:04:51;;;;;;;5.57;3.93;;;13.30;68.50;;;;;;4996197;28;20196;-67
2022/06/07 02:07:19;;;;;;;6.07;3.80;;;13.30;70.70;;;;;;4995962;28;20627;-68
2022/06/07 02:09:45;;;;;;;6.73;3.67;;;13.30;71.20;;;;;;4995927;28;20194;-67
2022/06/07 02:12:11;;;;;;;6.73;3.90;;;13.30;70.80;;;;;;4995612;28;20368;-68
2022/06/07 02:14:38;;;;;;;7.53;3.80;;;13.30;73.00;;;;;;4995431;28;20195;-68
2022/06/07 02:17:04;;;;;;;4.50;3.47;;;13.30;73.30;;;;;;4995640;28;20262;-67
2022/06/07 02:19:30;;;;;;;3.80;3.43;;;13.30;75.60;;;;;;4995894;28;20171;-68
2022/06/07 02:21:56;;;;;;;6.27;3.80;;;13.30;75.20;;;;;;4995569;28;20276;-66
2022/06/07 02:24:21;;;;;;;4.67;3.73;;;13.30;73.90;;;;;;4995647;28;20241;-67
2022/06/07 02:26:48;;;;;;;6.33;4.50;;;13.30;76.00;;;;;;4995578;28;20175;-68
2022/06/07 02:29:21;;;;;;;7.97;3.90;;;13.30;74.90;;;;;;4995336;28;20174;-67
2022/06/07 02:31:55;;;;;;;4.93;3.77;;;13.30;76.80;;;;;;4995447;28;20206;-68
2022/06/07 02:34:21;;;;;;;5.50;4.10;;;13.30;81.30;;;;;;4995604;28;20183;-67
2022/06/07 02:36:50;;;;;;;8.77;4.57;;;13.20;80.90;;;;;;4995559;28;20175;-67
2022/06/07 02:39:16;;;;;;;5.57;4.13;;;13.30;83.60;;;;;;4995331;28;20186;-68
2022/06/07 02:41:42;;;;;;;7.30;3.97;;;13.30;82.80;;;;;;4993720;28;20213;-68
2022/06/07 02:44:08;;;;;;;5.87;4.40;;;13.30;83.70;;;;;;4995079;28;20175;-66
2022/06/07 02:46:34;;;;;;;5.37;4.10;;;13.30;84.80;;;;;;4995561;28;20186;-67
2022/06/07 02:49:00;;;;;;;6.97;4.30;;;13.30;86.00;;;;;;4995081;28;20172;-67
2022/06/07 02:51:26;;;;;;;8.90;4.60;;;13.30;84.60;;;;;;4994867;28;20238;-68
2022/06/07 02:53:52;;;;;;;4.90;4.10;;;13.30;85.00;;;;;;4994764;28;20175;-67
2022/06/07 02:56:18;;;;;;;5.87;4.00;;;13.30;86.70;;;;;;4994965;28;20187;-67
2022/06/07 02:58:43;;;;;;;8.13;4.40;;;13.30;83.70;;;;;;4994698;28;20210;-67
2022/06/07 03:01:09;;;;;;;8.73;4.30;;;13.40;85.50;;;;;;4994631;28;20708;-67
2022/06/07 03:03:35;;;;;;;6.40;4.57;;;13.40;84.50;;;;;;4994929;28;20222;-68
2022/06/07 03:06:00;;;;;;;9.43;4.47;;;13.30;85.10;;;;;;4994740;28;20179;-67
2022/06/07 03:08:26;;;;;;;6.00;3.90;;;13.40;86.70;;;;;;4994724;28;20179;-67
2022/06/07 03:10:52;;;;;;;5.73;4.17;;;13.50;83.30;;;;;;4994564;28;20264;-68
2022/06/07 03:13:18;;;;;;;6.87;4.30;;;13.60;78.90;;;;;;4994175;28;20199;-67
2022/06/07 03:15:44;;;;;;;7.73;4.40;;;13.60;78.80;;;;;;4993348;28;20176;-67
2022/06/07 03:18:11;;;;;;;5.57;4.23;;;13.80;74.10;;;;;;4994222;28;20296;-67
2022/06/07 03:20:37;;;;;;;7.73;3.97;;;13.80;66.20;;;;;;4993956;28;20172;-68
2022/06/07 03:23:04;;;;;;;6.73;4.37;;;13.80;62.80;;;;;;4994053;28;20231;-67
2022/06/07 03:25:29;;;;;;;7.70;4.20;;;13.80;63.60;;;;;;4994554;28;20171;-67
2022/06/07 03:27:55;;;;;;;7.73;4.10;;;13.80;64.20;;;;;;4993530;28;20233;-67
2022/06/07 03:30:20;;;;;;;8.17;4.30;;;13.90;62.30;;;;;;4994180;28;20171;-67
2022/06/07 03:32:47;;;;;;;6.17;4.30;;;13.90;61.60;;;;;;4994216;28;20675;-67
2022/06/07 03:35:14;;;;;;;9.07;4.90;;;13.80;62.80;;;;;;4992923;28;20634;-67
2022/06/07 03:37:41;;;;;;;5.77;4.10;;;13.80;64.80;;;;;;4994325;28;20572;-67
2022/06/07 03:40:09;;;;;;;5.13;4.13;;;13.90;67.80;;;;;;4994017;28;20250;-66
2022/06/07 03:42:34;;;;;;;6.20;4.50;;;14.00;59.10;;;;;;4993619;28;20221;-68
2022/06/07 03:45:00;;;;;;;6.80;4.13;;;14.10;58.80;;;;;;4992818;28;20183;-68
2022/06/07 03:47:26;;;;;;;4.53;3.97;;;14.20;53.50;;;;;;4993680;28;20170;-66
2022/06/07 03:49:52;;;;;;;5.80;3.80;;;14.40;51.00;;;;;;4994057;28;20257;-68
2022/06/07 03:52:18;;;;;;;8.63;3.90;;;14.20;50.70;;;;;;4993485;28;20206;-69
2022/06/07 03:54:44;;;;;;;4.73;4.03;;;14.30;52.50;;;;;;4993837;28;20167;-67
2022/06/07 03:57:11;;;;;;;5.80;3.70;;;14.30;50.00;;;;;;4993637;28;20186;-68
2022/06/07 03:59:37;;;;;;;6.80;3.90;;;14.30;55.20;;;;;;4993820;28;20180;-67
2022/06/07 04:02:05;;;;;;;6.77;4.10;;;14.40;50.50;;;;;;4993811;28;20191;-67
2022/06/07 04:04:31;;;;;;;6.40;4.20;;;14.50;48.60;;;;;;4993644;28;20178;-68
2022/06/07 04:09:41;;;;;;;6.80;4.00;;;14.50;48.40;;;;;;4993825;28;20658;-68
2022/06/07 04:12:09;;;;;;;7.80;3.67;;;14.70;47.60;;;;;;4993352;28;20218;-70
2022/06/07 04:14:43;;;;;;;5.30;4.10;;;14.80;39.90;;;;;;4993452;28;20188;-68
2022/06/07 04:17:10;;;;;;;4.77;3.30;;;14.90;35.60;;;;;;4992385;28;20179;-68
2022/06/07 04:19:37;;;;;;;4.77;3.43;;;15.00;33.30;;;;;;4993437;28;20179;-68
2022/06/07 04:22:04;;;;;;;4.13;3.17;;;15.10;26.50;;;;;;4993113;28;20230;-68
2022/06/07 04:24:30;;;;;;;5.63;3.50;;;15.10;29.90;;;;;;4993201;28;20619;-67
2022/06/07 04:26:56;;;;;;;5.17;3.10;;;15.30;23.80;;;;;;4992836;28;20254;-67
2022/06/07 04:29:22;;;;;;;3.57;3.20;;;15.30;19.30;;;;;;4993234;28;20603;-68
2022/06/07 04:31:48;;;;;;;5.60;3.13;;;15.40;11.30;;;;;;4992950;28;20217;-68
2022/06/07 04:34:14;;;;;;;3.20;2.90;;;15.30;17.00;;;;;;4993363;28;20184;-68
2022/06/07 04:36:40;;;;;;;4.80;3.13;;;15.50;17.40;;;;;;4993438;28;20645;-68
2022/06/07 04:39:06;;;;;;;7.03;3.10;;;15.70;8.00;;;;;;4995786;28;20165;-69
2022/06/07 04:41:32;;;;;;;5.93;3.17;;;15.70;7.50;;;;;;4996896;28;20185;-68
2022/06/07 04:43:58;;;;;;;6.07;2.87;;;15.90;2.20;;;;;;4997399;28;20171;-68
2022/06/07 04:46:26;;;;;;;4.63;2.60;;;16.40;5.40;;;;;;4997201;28;20214;-69
2022/06/07 04:48:52;;;;;;;5.80;2.60;;;17.70;1.00;;;;;;4996850;28;20171;-69
2022/06/07 04:51:27;;;;;;;5.60;2.30;;;18.90;1.00;;;;;;4996821;28;20577;-69
2022/06/07 04:53:54;;;;;;;6.47;2.45;;;19.60;99.90;;;;;;4996256;28;20510;-69
2022/06/07 04:56:22;;;;;;;6.47;2.47;;;20.80;99.90;;;;;;4996725;28;20172;-69
2022/06/07 04:58:49;;;;;;;5.38;2.30;;;20.80;99.90;;;;;;4996667;28;20251;-69
2022/06/07 05:01:26;;;;;;;3.08;2.40;;;21.00;99.90;;;;;;4995552;28;20179;-69
2022/06/07 05:03:53;;;;;;;2.88;2.10;;;21.60;99.90;;;;;;4996607;28;20171;-68
2022/06/07 05:06:24;;;;;;;3.38;2.10;;;21.60;1.00;;;;;;4996432;28;20693;-69
2022/06/07 05:08:53;;;;;;;3.15;2.28;;;20.90;1.00;;;;;;4996072;28;20183;-68
2022/06/07 05:11:19;;;;;;;2.35;2.03;;;20.40;1.00;;;;;;4995952;28;20397;-68
2022/06/07 05:13:44;;;;;;;2.97;2.00;;;19.80;1.00;;;;;;4996626;28;20321;-68
2022/06/07 05:16:10;;;;;;;7.90;2.28;;;19.50;1.00;;;;;;4996073;28;20589;-69
2022/06/07 05:18:36;;;;;;;4.28;2.08;;;19.00;99.90;;;;;;4995925;28;20674;-69
2022/06/07 05:21:07;;;;;;;4.93;2.00;;;19.10;99.90;;;;;;4995338;28;20178;-69
2022/06/07 05:23:32;;;;;;;4.38;1.98;;;18.60;99.90;;;;;;4995623;28;20259;-68
2022/06/07 05:26:05;;;;;;;10.48;2.10;;;18.50;99.90;;;;;;4995477;28;20347;-68
2022/06/07 05:28:32;;;;;;;4.10;2.30;;;18.20;1.00;;;;;;4994368;28;20175;-68
2022/06/07 05:30:57;;;;;;;3.95;2.30;;;18.30;1.00;;;;;;4995611;28;20210;-68
2022/06/07 05:33:23;;;;;;;3.67;2.33;;;18.20;1.00;;;;;;4995930;28;20167;-69
2022/06/07 05:35:49;;;;;;;3.08;2.00;;;18.30;1.00;;;;;;4995420;28;20624;-69
2022/06/07 05:38:15;;;;;;;4.53;2.22;;;18.40;99.90;;;;;;4995420;28;20213;-69
2022/06/07 05:40:41;;;;;;;3.70;2.22;;;18.20;1.00;;;;;;4995131;28;20698;-68
2022/06/07 05:43:06;;;;;;;4.18;2.05;;;17.80;1.00;;;;;;4995203;28;20235;-67
2022/06/07 05:45:32;;;;;;;7.05;2.67;;;17.80;1.00;;;;;;4995427;28;20274;-69
2022/06/07 05:47:58;;;;;;;3.58;2.35;;;17.90;1.00;;;;;;4994660;28;20168;-69
2022/06/07 05:50:25;;;;;;;6.88;2.15;;;18.20;1.00;;;;;;4994485;28;20203;-70
2022/06/07 05:52:51;;;;;;;6.00;2.05;;;18.30;1.00;;;;;;4993123;28;20215;-68
2022/06/07 05:55:17;;;;;;;6.13;2.22;;;18.30;1.00;;;;;;4995507;28;20176;-69
2022/06/07 05:57:49;;;;;;;4.13;2.25;;;18.40;1.00;;;;;;4994371;28;20195;-69
2022/06/07 06:00:16;;;;;;;5.47;2.20;;;18.40;1.00;;;;;;4994849;28;20611;-69
2022/06/07 06:02:42;;;;;;;2.20;1.80;;;18.30;99.90;;;;;;4993250;28;20183;-69
2022/06/07 06:05:08;;;;;;;3.70;1.90;;;18.30;1.00;;;;;;4995373;28;20651;-68
2022/06/07 06:07:34;;;;;;;4.80;2.20;;;18.20;1.00;;;;;;4993557;28;20179;-69
2022/06/07 06:12:43;;;;;;;6.68;2.90;;;18.60;1.00;;;;;;4993876;28;20217;-69
2022/06/07 06:15:09;;;;;;;4.82;2.22;;;18.60;99.90;;;;;;4994714;28;20481;-69
2022/06/07 06:17:35;;;;;;;4.45;2.10;;;18.60;99.90;;;;;;4994580;28;20235;-68
2022/06/07 06:20:01;;;;;;;4.80;2.42;;;18.90;99.90;;;;;;4994871;28;20535;-69
2022/06/07 06:22:26;;;;;;;2.15;1.95;;;19.30;1.00;;;;;;4993484;28;20238;-69
2022/06/07 06:24:52;;;;;;;7.32;2.20;;;19.60;99.90;;;;;;4994708;28;20171;-69
2022/06/07 06:27:18;;;;;;;6.20;1.83;;;19.80;1.00;;;;;;4994249;28;20268;-68
2022/06/07 06:29:44;;;;;;;4.45;2.00;;;20.00;1.00;;;;;;4994213;28;20615;-70
2022/06/07 06:32:09;;;;;;;6.70;2.10;;;20.70;1.00;;;;;;4992186;28;20226;-69
2022/06/07 06:34:35;;;;;;;5.20;2.20;;;20.90;79.00;;;;;;4993642;28;20172;-69
2022/06/07 06:37:01;;;;;;;6.28;2.03;;;21.20;1.00;;;;;;4993440;28;20175;-69
2022/06/07 06:39:27;;;;;;;2.75;1.80;;;20.90;1.00;;;;;;4994261;28;20575;-69
2022/06/07 06:41:53;;;;;;;2.88;1.73;;;20.80;99.90;;;;;;4993480;28;20189;-68
2022/06/07 06:44:18;;;;;;;3.75;2.38;;;20.60;1.00;;;;;;4993983;28;20581;-69
2022/06/07 06:46:47;;;;;;;3.47;1.80;;;20.50;65.30;;;;;;4982423;28;20191;-69
2022/06/07 06:49:14;;;;;;;6.88;2.10;;;20.70;1.00;;;;;;4989717;28;20176;-69
2022/06/07 06:51:41;;;;;;;3.55;1.90;;;20.80;99.90;;;;;;4987892;28;20213;-69
2022/06/07 06:54:09;;;;;;;4.55;1.92;;;21.20;99.90;;;;;;4973246;28;20204;-68
2022/06/07 06:56:35;;;;;;;6.32;1.90;;;20.90;99.90;;;;;;4984755;28;20270;-69
2022/06/07 06:59:01;;;;;;;5.60;2.00;;;21.10;1.00;;;;;;4992049;28;20171;-69
2022/06/07 07:01:31;;;;;;;3.70;2.00;;;21.20;1.00;;;;;;4993417;28;20670;-69
2022/06/07 07:03:59;;;;;;;7.90;2.05;;;21.30;1.00;;;;;;4992905;28;20266;-70
2022/06/07 07:06:25;;;;;;;6.07;2.00;;;21.40;1.00;;;;;;5006028;28;20186;-69
2022/06/07 07:08:51;;;;;;;9.10;2.13;;;21.40;1.00;;;;;;4996031;28;20261;-71
2022/06/07 07:11:24;;;;;;;5.75;2.35;;;21.70;99.90;;;;;;4998604;28;20203;-68
2022/06/07 07:13:53;;;;;;;6.55;1.95;;;21.30;1.00;;;;;;4999528;28;20210;-69
2022/06/07 07:16:22;;;;;;;4.68;1.92;;;20.80;1.00;;;;;;5000543;28;20611;-70
2022/06/07 07:18:49;;;;;;;4.15;1.85;;;21.40;1.00;;;;;;5008396;28;20170;-69
2022/06/07 07:21:19;;;;;;;6.78;2.13;;;21.50;99.90;;;;;;4994613;28;20182;-70
2022/06/07 07:23:45;;;;;;;2.55;1.60;;;22.00;1.00;;;;;;5004217;28;20222;-68
2022/06/07 07:26:19;;;;;;;2.47;1.63;;;22.30;99.90;;;;;;5002721;28;20175;-69
2022/06/07 07:28:45;;;;;;;5.03;1.70;;;22.40;99.90;;;;;;4997130;28;20257;-70
2022/06/07 07:31:19;;;;;;;3.38;1.50;;;22.50;1.00;;;;;;4993787;28;20211;-69
2022/06/07 07:33:45;;;;;;;5.57;2.05;;;22.50;99.90;;;;;;5005317;28;20183;-70
2022/06/07 07:36:11;;;;;;;3.22;1.77;;;23.20;99.90;;;;;;5003634;28;20273;-70
2022/06/07 07:38:39;;;;;;;2.30;1.80;;;22.90;99.90;;;;;;4998425;28;20258;-68
2022/06/07 07:41:17;;;;;;;2.58;1.63;;;22.10;99.90;;;;;;5008954;28;20280;-69
2022/06/07 07:43:43;;;;;;;2.80;1.70;;;22.60;1.00;;;;;;4999481;28;20229;-69
2022/06/07 07:46:08;;;;;;;2.53;1.58;;;22.50;1.00;;;;;;5002507;28;20224;-69
2022/06/07 07:48:34;;;;;;;3.50;1.90;;;22.90;1.00;;;;;;5006508;28;20174;-70
2022/06/07 07:51:04;;;;;;;5.72;1.88;;;23.50;99.90;;;;;;4995895;28;20561;-69
2022/06/07 07:53:30;;;;;;;4.57;1.73;;;23.80;1.00;;;;;;5007345;28;20188;-70
2022/06/07 07:55:55;;;;;;;2.75;1.42;;;23.90;99.90;;;;;;5001451;28;20171;-70
2022/06/07 07:58:22;;;;;;;4.25;1.75;;;23.60;99.90;;;;;;4995747;28;20545;-70
2022/06/07 08:00:49;;;;;;;2.08;1.55;;;22.80;1.00;;;;;;5008323;28;20194;-67
2022/06/07 08:03:16;;;;;;;5.88;1.70;;;22.30;1.00;;;;;;4995690;28;20159;-68
2022/06/07 08:05:42;;;;;;;2.58;1.73;;;22.20;99.90;;;;;;5005555;28;20362;-69
2022/06/07 08:08:09;;;;;;;9.13;2.70;;;22.10;99.90;;;;;;5002671;28;20171;-69
2022/06/07 08:10:36;;;;;;;3.80;2.13;;;21.70;99.90;;;;;;4998059;28;20229;-70
2022/06/07 08:13:03;;;;;;;3.85;2.22;;;21.50;1.00;;;;;;5007662;28;20203;-67
2022/06/07 08:15:31;;;;;;;6.22;2.30;;;20.90;1.00;;;;;;4997093;28;20248;-68
2022/06/07 08:17:57;;;;;;;4.57;2.55;;;20.60;99.90;;;;;;5001907;28;20175;-68
2022/06/07 08:20:24;;;;;;;5.95;2.90;;;20.60;99.90;;;;;;5004821;28;20174;-68
2022/06/07 08:22:50;;;;;;;6.65;2.63;;;20.50;99.90;;;;;;4996211;28;20254;-69
2022/06/07 08:25:16;;;;;;;5.45;2.58;;;20.40;99.90;;;;;;5008767;28;20905;-68
2022/06/07 08:27:42;;;;;;;4.88;2.35;;;19.90;1.00;;;;;;4998768;28;20229;-69
2022/06/07 08:30:09;;;;;;;5.28;2.45;;;20.00;1.00;;;;;;4997907;28;20179;-67
2022/06/07 08:32:35;;;;;;;2.65;2.38;;;19.80;1.00;;;;;;5005919;28;20736;-68
2022/06/07 08:37:46;;;;;;;5.70;2.83;;;20.00;1.00;;;;;;5005246;28;20322;-69
2022/06/07 08:40:20;;;;;;;3.92;2.33;;;20.10;1.00;;;;;;5003016;28;20677;-68
2022/06/07 08:42:52;;;;;;;4.90;2.60;;;20.40;1.00;;;;;;4996443;28;20190;-69
2022/06/07 08:46:04;;;;;;;3.92;2.60;;;20.30;1.00;;;;;;4978464;28;20236;-69
2022/06/07 08:48:32;;;;;;;3.55;2.00;;;20.50;1.00;;;;;;4998285;28;20174;-68
2022/06/07 08:51:16;;;;;;;3.28;2.35;;;20.50;1.00;;;;;;5008219;28;20317;-68
2022/06/07 08:53:47;;;;;;;4.38;2.13;;;20.70;1.00;;;;;;4998554;28;20171;-67
2022/06/07 08:56:17;;;;;;;3.85;2.17;;;20.10;99.90;;;;;;5000715;28;20270;-67
2022/06/07 08:58:49;;;;;;;4.80;2.55;;;20.30;1.00;;;;;;5007213;28;20179;-70
2022/06/07 09:01:27;;;;;;;5.68;2.65;;;20.20;1.00;;;;;;4992574;28;20240;-68
2022/06/07 09:03:55;;;;;;;3.63;2.60;;;20.40;1.00;;;;;;5004220;28;20187;-69
2022/06/07 09:06:24;;;;;;;3.95;2.58;;;20.10;1.00;;;;;;4991430;28;20206;-69
2022/06/07 09:08:57;;;;;;;4.70;2.50;;;20.30;1.00;;;;;;4996427;28;20188;-68
2022/06/07 09:14:25;;;;;;;6.20;3.03;;;20.30;1.00;;;;;;4995413;28;20209;-68
2022/06/07 09:16:53;;;;;;;6.10;2.72;;;20.30;1.00;;;;;;4994986;28;20198;-69
2022/06/07 09:19:27;;;;;;;6.20;2.90;;;20.30;1.00;;;;;;4979463;28;20676;-68
2022/06/07 09:21:56;;;;;;;6.45;3.63;;;20.20;1.00;;;;;;5002770;28;20619;-66
2022/06/07 09:24:27;;;;;;;8.45;3.47;;;20.20;1.00;;;;;;4998179;28;20175;-68
2022/06/07 09:27:10;;;;;;;6.35;3.30;;;20.00;1.00;;;;;;5011669;28;20198;-67
2022/06/07 09:29:38;;;;;;;5.57;3.90;;;20.10;1.00;;;;;;4999765;28;20174;-69
2022/06/07 09:32:11;;;;;;;7.50;4.20;;;20.10;1.00;;;;;;5004686;28;20211;-68
2022/06/07 09:34:46;;;;;;;4.85;3.70;;;19.90;1.00;;;;;;4994709;28;20167;-70
2022/06/07 09:37:16;;;;;;;6.40;3.88;;;19.70;1.00;;;;;;5010940;28;20713;-68
2022/06/07 09:39:43;;;;;;;6.13;3.97;;;19.70;1.00;;;;;;4992130;28;20199;-67
2022/06/07 09:42:17;;;;;;;8.48;4.13;;;19.40;1.00;;;;;;4986848;28;20180;-66
2022/06/07 09:44:57;;;;;;;8.40;4.05;;;19.40;1.00;;;;;;5009513;28;20163;-68
2022/06/07 09:47:25;;;;;;;3.97;3.58;;;19.60;1.00;;;;;;4983097;28;20173;-67
2022/06/07 09:50:32;;;;;;;8.60;4.20;;;19.60;1.00;;;;;;5005642;28;20168;-68
2022/06/07 09:53:07;;;;;;;4.80;3.70;;;19.50;1.00;;;;;;5010078;28;20217;-67
2022/06/07 09:55:46;;;;;;;8.98;4.40;;;19.20;1.00;;;;;;5000215;28;20174;-67
2022/06/07 09:58:33;;;;;;;7.13;4.60;;;19.00;1.00;;;;;;5002386;28;20201;-68
2022/06/07 10:01:15;;;;;;;9.13;5.63;;;19.10;1.00;;;;;;4995083;28;20171;-68
2022/06/07 10:04:00;;;;;;;8.30;5.65;;;19.10;1.00;;;;;;5004211;28;20167;-68
2022/06/07 10:06:36;;;;;;;12.25;7.05;;;19.10;1.00;;;;;;4991930;28;20175;-71
2022/06/07 10:09:07;;;;;;;13.10;9.50;;;19.00;1.00;;;;;;5009948;28;20162;-68
2022/06/07 10:12:01;;;;;;;15.98;9.55;;;18.70;7.80;;;;;;4999531;28;20251;-69
2022/06/07 10:14:26;;;;;;;17.05;10.52;;;18.30;20.30;;;;;;5000615;28;20191;-69
2022/06/07 10:16:54;;;;;;;14.07;9.63;;;18.50;34.80;;;;;;5010942;28;20189;-69
2022/06/07 10:19:39;;;;;;;11.85;7.95;;;18.50;37.50;;;;;;4980247;28;20174;-70
2022/06/07 10:22:13;;;;;;;12.05;9.50;;;18.40;30.00;;;;;;5002639;28;20221;-70
2022/06/07 10:24:45;;;;;;;12.82;8.68;;;18.30;39.40;;;;;;5008034;28;20283;-68
2022/06/07 10:27:22;;;;;;;8.20;7.18;;;18.40;38.20;;;;;;4994273;28;20172;-67
2022/06/07 10:30:06;;;;;;;13.15;11.80;;;18.70;32.40;;;;;;4999786;28;20205;-69
2022/06/07 10:32:48;;;;;;;7.68;7.00;;;18.90;29.20;;;;;;4999141;28;20269;-69
2022/06/07 10:35:28;;;;;;;7.10;6.43;;;18.80;22.30;;;;;;5008057;28;20705;-67
2022/06/07 10:38:23;;;;;;;7.45;6.53;;;18.90;15.10;;;;;;4991585;28;20246;-68
2022/06/07 10:41:07;;;;;;;7.45;6.22;;;19.20;11.90;;;;;;5008975;28;20178;-68
2022/06/07 10:43:48;;;;;;;14.48;7.05;;;18.90;14.10;;;;;;4984423;28;20282;-68
2022/06/07 10:46:17;;;;;;;10.27;7.63;;;18.80;19.20;;;;;;5001329;28;20185;-67
2022/06/07 10:48:52;;;;;;;11.85;7.43;;;19.00;16.60;;;;;;5008091;28;20183;-67
2022/06/07 10:54:15;;;;;;;9.95;7.22;;;18.80;23.30;;;;;;5003143;28;20214;-69
2022/06/07 10:56:48;;;;;;;10.63;7.72;;;18.30;44.70;;;;;;5008393;28;20186;-68
2022/06/07 10:59:22;;;;;;;11.82;8.80;;;18.30;59.90;;;;;;4995869;28;20182;-70
2022/06/07 11:01:57;;;;;;;12.50;8.88;;;18.30;61.10;;;;;;5000314;28;20174;-69
2022/06/07 11:10:46;;;;;;;15.98;12.48;;;17.80;95.40;;;;;;4992018;28;20230;-69
2022/06/07 11:13:17;;;;;;;15.68;10.95;;;17.90;99.90;;;;;;4994797;28;20207;-69
2022/06/07 11:16:07;;;;;;;16.83;10.63;;;17.80;99.90;;;;;;5005964;28;20262;-68
2022/06/07 11:18:33;;;;;;;15.23;11.07;;;17.90;99.90;;;;;;4997082;28;20172;-68
2022/06/07 11:21:01;;;;;;;16.38;12.27;;;18.10;99.90;;;;;;5009093;28;20175;-68
2022/06/07 11:23:50;;;;;;;25.65;12.23;;;18.40;99.90;;;;;;4996716;28;20214;-69
2022/06/07 11:26:17;;;;;;;13.30;10.38;;;18.60;93.10;;;;;;4959529;28;20656;-69
2022/06/07 11:28:52;;;;;;;13.73;11.15;;;18.90;60.60;;;;;;4952737;28;20280;-69
2022/06/07 11:31:21;;;;;;;13.95;11.65;;;19.10;59.00;;;;;;4939170;28;20214;-67
2022/06/07 11:33:53;;;;;;;13.05;10.48;;;19.50;48.80;;;;;;4964080;28;20640;-69
2022/06/07 11:36:24;;;;;;;12.77;10.52;;;19.60;29.20;;;;;;4962943;28;20705;-69
2022/06/07 11:39:00;;;;;;;12.85;10.30;;;19.60;25.00;;;;;;4955911;28;20180;-69
2022/06/07 11:41:37;;;;;;;11.20;9.07;;;19.80;26.10;;;;;;4950276;28;20262;-68
2022/06/07 11:44:10;;;;;;;12.68;9.52;;;20.00;3.60;;;;;;4951746;29;20231;-70
2022/06/07 11:46:35;;;;;;;9.65;8.27;;;20.10;1.00;;;;;;4964940;28;20188;-68
2022/06/07 11:49:24;;;;;;;11.70;9.15;;;19.90;1.00;;;;;;4954055;28;20261;-70
2022/06/07 11:52:11;;;;;;;10.13;9.18;;;20.60;1.00;;;;;;4905754;29;20214;-69
2022/06/07 11:54:46;;;;;;;9.13;8.07;;;21.10;1.00;;;;;;4908222;29;20295;-69
2022/06/07 11:57:35;;;;;;;8.07;7.28;;;21.10;1.00;;;;;;4897217;29;20190;-69
2022/06/07 12:00:16;;;;;;;8.88;7.97;;;21.30;1.00;;;;;;4904543;29;20194;-68
2022/06/07 12:03:11;;;;;;;10.55;7.38;;;21.40;1.00;;;;;;4921214;28;20211;-67
2022/06/07 12:06:11;;;;;;;7.70;7.00;;;21.60;1.00;;;;;;4943971;28;20187;-69
2022/06/07 12:08:59;;;;;;;7.80;7.18;;;21.40;1.00;;;;;;4957266;28;20168;-67
2022/06/07 12:11:34;;;;;;;8.20;7.40;;;21.40;1.00;;;;;;4937662;28;20207;-69
2022/06/07 12:14:05;;;;;;;8.40;7.60;;;21.20;1.00;;;;;;4952449;28;20554;-70
2022/06/07 12:16:51;;;;;;;8.75;7.95;;;21.30;1.00;;;;;;4951452;29;20218;-69
2022/06/07 12:19:26;;;;;;;8.55;7.85;;;21.50;1.00;;;;;;4966955;28;20178;-69
2022/06/07 12:22:01;;;;;;;8.48;7.68;;;22.40;1.00;;;;;;4959034;28;20280;-68
2022/06/07 12:24:28;;;;;;;9.80;8.75;;;22.50;1.00;;;;;;4957544;28;20224;-71
2022/06/07 12:26:54;;;;;;;8.25;7.45;;;22.60;1.00;;;;;;4966702;28;20184;-69
2022/06/07 12:29:28;;;;;;;8.93;8.13;;;22.60;1.00;;;;;;4982928;28;20509;-70
2022/06/07 12:32:06;;;;;;;9.00;7.80;;;22.00;1.00;;;;;;5002761;28;20241;-69
2022/06/07 12:34:36;;;;;;;8.43;7.68;;;22.20;1.00;;;;;;5005799;28;20183;-67
2022/06/07 12:37:08;;;;;;;8.52;7.47;;;22.70;1.00;;;;;;4994462;28;20300;-69
2022/06/07 12:39:49;;;;;;;8.05;7.35;;;22.30;1.00;;;;;;5005671;28;20175;-67
2022/06/07 12:42:17;;;;;;;7.97;7.32;;;22.50;1.00;;;;;;4991687;28;20175;-69
2022/06/07 12:45:00;;;;;;;7.68;7.07;;;22.10;1.00;;;;;;4994305;28;20597;-69
2022/06/07 12:47:31;;;;;;;8.45;7.75;;;21.80;1.00;;;;;;4992257;28;20254;-69
2022/06/07 12:49:58;;;;;;;8.80;7.97;;;21.60;1.00;;;;;;5003064;28;20263;-69
2022/06/07 12:52:27;;;;;;;9.68;8.52;;;21.20;1.00;;;;;;4995698;28;20211;-68
2022/06/07 12:54:55;;;;;;;8.73;7.88;;;21.30;1.00;;;;;;4989384;28;20183;-69
2022/06/07 12:57:30;;;;;;;8.23;7.53;;;21.90;1.00;;;;;;4995892;28;20195;-71
2022/06/07 13:00:00;;;;;;;8.40;7.68;;;22.00;1.00;;;;;;5002979;28;20624;-67
2022/06/07 13:02:32;;;;;;;7.78;7.05;;;22.00;1.00;;;;;;4992835;28;20258;-69
2022/06/07 13:05:04;;;;;;;7.55;6.82;;;22.20;1.00;;;;;;5009437;28;20175;-69
2022/06/07 13:07:32;;;;;;;7.05;6.30;;;21.90;1.00;;;;;;4997548;28;20167;-70
2022/06/07 13:10:00;;;;;;;7.28;6.55;;;22.10;1.00;;;;;;4992801;28;20189;-69
2022/06/07 13:12:30;;;;;;;8.23;6.15;;;22.10;1.00;;;;;;5003022;28;20670;-69
2022/06/07 13:14:57;;;;;;;6.85;6.25;;;21.60;1.00;;;;;;5010237;28;20209;-68
2022/06/07 13:17:52;;;;;;;7.28;6.65;;;21.30;1.00;;;;;;4997892;28;20464;-68
2022/06/07 13:20:29;;;;;;;6.97;6.25;;;21.40;1.00;;;;;;4994059;28;20258;-69
2022/06/07 13:22:55;;;;;;;8.02;6.50;;;20.90;1.00;;;;;;4993068;28;20226;-68
2022/06/07 13:25:32;;;;;;;7.78;6.00;;;20.90;1.00;;;;;;4995105;28;20534;-68
2022/06/07 13:28:19;;;;;;;5.82;5.43;;;20.80;1.00;;;;;;4998113;28;20233;-68
2022/06/07 13:30:46;;;;;;;6.57;5.97;;;20.30;1.00;;;;;;5009770;28;20229;-68